Time;durP1;ratioP1;P1;durP2;ratioP2;P2;SDS_P1;SDS_P2;PMS_P1;PMS_P2;Temp;Humidity;BMP_temperature;BMP_pressure;BME280_temperature;BME280_humidity;BME280_pressure;Samples;Min_cycle;Max_cycle;Signal;HPM_P1;HPM_P2
2022/04/07 00:02:29;;;;;;;19.83;12.17;;;9.80;99.90;;;;;;4996635;28;20691;-62
2022/04/07 00:05:19;;;;;;;18.20;12.30;;;9.80;99.90;;;;;;4979320;28;20721;-61
2022/04/07 00:08:08;;;;;;;18.87;11.37;;;9.80;99.90;;;;;;4994501;28;20233;-62
2022/04/07 00:11:06;;;;;;;18.77;12.40;;;9.80;99.90;;;;;;4999101;28;20221;-61
2022/04/07 00:13:55;;;;;;;18.80;12.53;;;9.80;99.90;;;;;;4997879;28;20359;-61
2022/04/07 00:16:43;;;;;;;18.17;12.67;;;9.80;99.90;;;;;;4991601;28;20219;-61
2022/04/07 00:19:32;;;;;;;19.70;13.47;;;9.80;99.90;;;;;;5000992;28;20242;-60
2022/04/07 00:22:22;;;;;;;20.57;12.50;;;9.80;99.90;;;;;;4996853;28;20225;-60
2022/04/07 00:25:11;;;;;;;20.50;13.03;;;9.80;99.90;;;;;;4999447;28;20755;-62
2022/04/07 00:28:00;;;;;;;17.77;12.20;;;9.80;99.90;;;;;;4988843;28;20650;-62
2022/04/07 00:30:49;;;;;;;21.80;13.07;;;9.80;99.90;;;;;;4996201;28;20780;-62
2022/04/07 00:33:38;;;;;;;21.73;12.27;;;9.80;99.90;;;;;;4997611;28;20225;-59
2022/04/07 00:36:26;;;;;;;18.93;11.80;;;9.80;99.90;;;;;;4999882;28;20232;-60
2022/04/07 00:39:17;;;;;;;19.47;12.60;;;9.80;99.90;;;;;;4998411;28;20340;-60
2022/04/07 00:42:06;;;;;;;20.87;13.00;;;9.80;99.90;;;;;;4997605;28;20229;-59
2022/04/07 00:44:54;;;;;;;18.50;12.13;;;9.80;99.90;;;;;;4996994;28;20244;-60
2022/04/07 00:47:44;;;;;;;18.33;11.83;;;9.80;99.90;;;;;;5000537;28;20227;-61
2022/04/07 00:50:33;;;;;;;19.87;12.57;;;9.80;99.90;;;;;;4994319;28;20225;-61
2022/04/07 00:53:22;;;;;;;19.33;12.73;;;9.80;99.90;;;;;;4994552;28;20236;-60
2022/04/07 00:56:16;;;;;;;18.77;11.80;;;9.80;99.90;;;;;;4997815;28;20432;-61
2022/04/07 00:59:06;;;;;;;16.87;12.60;;;9.80;99.90;;;;;;4997050;28;20297;-61
2022/04/07 01:01:55;;;;;;;18.37;12.60;;;9.80;99.90;;;;;;4995596;28;20228;-60
2022/04/07 01:04:44;;;;;;;20.50;12.87;;;9.90;99.90;;;;;;4998116;28;20293;-60
2022/04/07 01:07:36;;;;;;;19.63;12.53;;;9.90;99.90;;;;;;4979968;28;20940;-58
2022/04/07 01:10:25;;;;;;;17.77;12.13;;;9.90;99.90;;;;;;4992669;28;20268;-59
2022/04/07 01:13:15;;;;;;;22.30;12.90;;;9.90;99.90;;;;;;4985966;28;20890;-59
2022/04/07 01:16:04;;;;;;;21.53;12.60;;;9.80;99.90;;;;;;4996060;28;20930;-59
2022/04/07 01:18:55;;;;;;;19.93;12.80;;;9.80;99.90;;;;;;4997696;28;20218;-60
2022/04/07 01:21:45;;;;;;;18.40;11.90;;;9.80;99.90;;;;;;4998508;28;20719;-60
2022/04/07 01:24:36;;;;;;;17.67;12.02;;;9.80;99.90;;;;;;4996469;28;20225;-59
2022/04/07 01:27:25;;;;;;;20.77;12.95;;;9.80;99.90;;;;;;4996791;28;20258;-60
2022/04/07 01:30:14;;;;;;;24.70;13.03;;;9.80;99.90;;;;;;4993667;28;20230;-61
2022/04/07 01:33:03;;;;;;;21.55;12.57;;;9.80;99.90;;;;;;4993484;28;20267;-59
2022/04/07 01:35:52;;;;;;;20.30;13.30;;;9.80;99.90;;;;;;4999530;28;20566;-60
2022/04/07 01:38:45;;;;;;;21.67;13.13;;;9.80;99.90;;;;;;4998797;28;20237;-60
2022/04/07 01:41:35;;;;;;;24.92;13.18;;;9.80;99.90;;;;;;4997239;28;20229;-60
2022/04/07 01:44:25;;;;;;;19.80;12.23;;;9.80;99.90;;;;;;4978319;28;20225;-60
2022/04/07 01:47:15;;;;;;;19.27;12.20;;;9.80;99.90;;;;;;4996676;28;20236;-60
2022/04/07 01:50:07;;;;;;;22.08;12.75;;;9.80;99.90;;;;;;4985130;28;20236;-59
2022/04/07 01:52:57;;;;;;;22.85;13.05;;;9.80;99.90;;;;;;4996804;28;20226;-60
2022/04/07 01:55:47;;;;;;;20.73;12.83;;;9.80;99.90;;;;;;4998007;28;20804;-62
2022/04/07 01:58:37;;;;;;;18.57;12.33;;;9.80;99.90;;;;;;5000340;28;20237;-61
2022/04/07 02:01:27;;;;;;;20.70;13.23;;;9.70;99.90;;;;;;4996549;28;20542;-58
2022/04/07 02:04:15;;;;;;;17.97;12.97;;;9.80;99.90;;;;;;4978029;28;20271;-57
2022/04/07 02:07:04;;;;;;;20.23;12.85;;;9.70;99.90;;;;;;4987559;28;20245;-58
2022/04/07 02:09:53;;;;;;;18.53;12.87;;;9.70;99.90;;;;;;4996870;28;20220;-59
2022/04/07 02:12:42;;;;;;;20.93;13.43;;;9.70;99.90;;;;;;4996873;28;20608;-60
2022/04/07 02:15:33;;;;;;;19.10;12.47;;;9.70;99.90;;;;;;4993430;28;20735;-59
2022/04/07 02:18:22;;;;;;;20.23;12.97;;;9.70;99.90;;;;;;4995799;28;20316;-60
2022/04/07 02:21:10;;;;;;;20.93;13.37;;;9.70;99.90;;;;;;4985158;28;20232;-60
2022/04/07 02:23:59;;;;;;;18.23;12.63;;;9.70;99.90;;;;;;4982330;28;20569;-60
2022/04/07 02:26:48;;;;;;;20.05;13.27;;;9.70;99.90;;;;;;4997748;28;20301;-60
2022/04/07 02:29:36;;;;;;;21.03;14.20;;;9.70;99.90;;;;;;4981842;28;20280;-59
2022/04/07 02:32:28;;;;;;;20.90;13.50;;;9.70;99.90;;;;;;4979469;28;20321;-60
2022/04/07 02:35:17;;;;;;;21.47;12.83;;;9.70;99.90;;;;;;4997911;28;20222;-59
2022/04/07 02:38:06;;;;;;;22.93;12.53;;;9.70;99.90;;;;;;4998554;28;20244;-59
2022/04/07 02:40:54;;;;;;;20.90;13.07;;;9.70;99.90;;;;;;4993149;28;20248;-60
2022/04/07 02:43:43;;;;;;;19.45;12.77;;;9.70;99.90;;;;;;4980506;28;20225;-59
2022/04/07 02:46:32;;;;;;;20.53;13.03;;;9.70;99.90;;;;;;4997503;28;20224;-59
2022/04/07 02:49:24;;;;;;;22.20;13.50;;;9.70;99.90;;;;;;4989791;28;20230;-60
2022/04/07 02:52:13;;;;;;;20.27;12.90;;;9.70;99.90;;;;;;4980708;28;20710;-59
2022/04/07 02:55:02;;;;;;;23.77;13.55;;;9.70;99.90;;;;;;4997157;28;20225;-60
2022/04/07 02:57:54;;;;;;;23.07;13.30;;;9.70;99.90;;;;;;4997555;28;20222;-60
2022/04/07 03:00:42;;;;;;;20.60;13.23;;;9.70;99.90;;;;;;4977714;28;20218;-59
2022/04/07 03:03:31;;;;;;;19.30;12.63;;;9.70;99.90;;;;;;4994934;28;20226;-59
2022/04/07 03:06:21;;;;;;;25.03;14.13;;;9.70;99.90;;;;;;4985251;28;20222;-59
2022/04/07 03:09:09;;;;;;;22.97;13.10;;;9.70;99.90;;;;;;4980284;28;20270;-59
2022/04/07 03:11:58;;;;;;;20.53;14.40;;;9.70;99.90;;;;;;4993313;28;20287;-60
2022/04/07 03:14:46;;;;;;;21.53;13.30;;;9.70;99.90;;;;;;4997267;28;20897;-60
2022/04/07 03:17:35;;;;;;;21.17;13.07;;;9.70;99.90;;;;;;4981975;28;20320;-59
2022/04/07 03:20:24;;;;;;;23.02;14.38;;;9.70;99.90;;;;;;4994191;28;20226;-59
2022/04/07 03:23:14;;;;;;;22.38;14.27;;;9.70;99.90;;;;;;4983646;28;20230;-60
2022/04/07 03:26:03;;;;;;;22.52;13.20;;;9.70;99.90;;;;;;4997052;28;20248;-60
2022/04/07 03:28:52;;;;;;;24.33;14.37;;;9.70;99.90;;;;;;4996542;28;20815;-55
2022/04/07 03:31:40;;;;;;;23.50;14.27;;;9.70;99.90;;;;;;4982535;28;20238;-59
2022/04/07 03:34:29;;;;;;;20.83;13.97;;;9.60;99.90;;;;;;4982063;28;20229;-60
2022/04/07 03:37:18;;;;;;;22.60;13.93;;;9.70;99.90;;;;;;4999553;28;20232;-58
2022/04/07 03:40:10;;;;;;;20.00;13.30;;;9.60;99.90;;;;;;4998167;28;21044;-58
2022/04/07 03:43:04;;;;;;;23.75;14.30;;;9.60;99.90;;;;;;4995412;28;20229;-59
2022/04/07 03:45:52;;;;;;;20.83;13.63;;;9.60;99.90;;;;;;4999382;28;20638;-58
2022/04/07 03:48:41;;;;;;;22.60;13.87;;;9.60;99.90;;;;;;4987623;28;20215;-58
2022/04/07 03:51:30;;;;;;;26.07;14.50;;;9.60;99.90;;;;;;4997632;28;20229;-58
2022/04/07 03:54:18;;;;;;;22.83;14.83;;;9.50;99.90;;;;;;5002296;28;20221;-59
2022/04/07 03:57:09;;;;;;;20.07;13.67;;;9.50;99.90;;;;;;4984267;28;20476;-59
2022/04/07 03:59:57;;;;;;;22.63;14.67;;;9.50;99.90;;;;;;4986465;28;20286;-59
2022/04/07 04:02:46;;;;;;;25.07;15.00;;;9.50;99.90;;;;;;4994361;28;20224;-61
2022/04/07 04:05:35;;;;;;;23.87;14.83;;;9.50;99.90;;;;;;5001356;28;20370;-60
2022/04/07 04:08:23;;;;;;;22.23;14.00;;;9.50;99.90;;;;;;4983319;28;20229;-61
2022/04/07 04:11:13;;;;;;;23.80;14.23;;;9.50;99.90;;;;;;4995262;28;20241;-60
2022/04/07 04:14:06;;;;;;;24.67;15.00;;;9.50;99.90;;;;;;5000521;28;20257;-59
2022/04/07 04:16:54;;;;;;;22.40;13.40;;;9.50;99.90;;;;;;4999112;28;20574;-59
2022/04/07 04:19:43;;;;;;;24.70;13.77;;;9.50;99.90;;;;;;4991578;28;20798;-59
2022/04/07 04:22:31;;;;;;;22.23;13.90;;;9.50;99.90;;;;;;4995880;28;20221;-60
2022/04/07 04:25:21;;;;;;;23.20;13.70;;;9.50;99.90;;;;;;4978803;28;20715;-61
2022/04/07 04:28:09;;;;;;;24.57;14.07;;;9.50;99.90;;;;;;4996973;28;20224;-61
2022/04/07 04:31:00;;;;;;;23.37;13.83;;;9.50;99.90;;;;;;4994623;28;20221;-60
2022/04/07 04:33:48;;;;;;;23.60;14.07;;;9.50;99.90;;;;;;4985513;28;20319;-61
2022/04/07 04:36:37;;;;;;;21.83;12.83;;;9.50;99.90;;;;;;4999410;28;20365;-61
2022/04/07 04:39:26;;;;;;;22.53;13.17;;;9.50;99.90;;;;;;5000559;28;20242;-61
2022/04/07 04:42:14;;;;;;;24.10;14.30;;;9.50;99.90;;;;;;4986260;28;20227;-62
2022/04/07 04:45:03;;;;;;;23.83;14.90;;;9.50;99.90;;;;;;4996158;28;20755;-63
2022/04/07 04:47:53;;;;;;;24.33;13.10;;;9.50;99.90;;;;;;5001652;28;20950;-61
2022/04/07 04:50:42;;;;;;;23.60;13.40;;;9.50;99.90;;;;;;5001851;28;20232;-62
2022/04/07 04:53:30;;;;;;;21.90;13.27;;;9.50;99.90;;;;;;4996185;28;20610;-62
2022/04/07 04:56:20;;;;;;;22.67;12.83;;;9.50;99.90;;;;;;4979424;28;20237;-62
2022/04/07 04:59:09;;;;;;;21.40;13.90;;;9.60;99.90;;;;;;4999136;28;20370;-61
2022/04/07 05:02:00;;;;;;;24.20;14.17;;;9.60;99.90;;;;;;4998930;28;20220;-61
2022/04/07 05:04:50;;;;;;;20.53;12.67;;;9.60;99.90;;;;;;4996172;28;20227;-61
2022/04/07 05:07:39;;;;;;;21.57;13.10;;;9.70;99.90;;;;;;5001607;28;20253;-61
2022/04/07 05:10:28;;;;;;;22.47;13.13;;;9.70;99.90;;;;;;4996026;28;20234;-61
2022/04/07 05:13:17;;;;;;;24.13;13.47;;;9.70;99.90;;;;;;5000200;28;20226;-63
2022/04/07 05:16:07;;;;;;;20.58;13.07;;;9.70;99.90;;;;;;4999149;28;20228;-61
2022/04/07 05:18:56;;;;;;;18.67;11.30;;;9.80;99.90;;;;;;4998298;28;20232;-60
2022/04/07 05:21:49;;;;;;;24.02;13.77;;;9.80;99.90;;;;;;5001087;28;20233;-60
2022/04/07 05:24:37;;;;;;;22.43;12.40;;;9.80;99.90;;;;;;4986370;28;20283;-60
2022/04/07 05:27:28;;;;;;;20.95;13.32;;;9.90;99.90;;;;;;4982770;28;20225;-59
2022/04/07 05:30:20;;;;;;;20.15;12.48;;;9.90;99.90;;;;;;4997941;28;20222;-58
2022/04/07 05:33:08;;;;;;;19.90;12.07;;;9.90;99.90;;;;;;4996678;28;20253;-59
2022/04/07 05:35:57;;;;;;;20.27;12.27;;;10.00;99.90;;;;;;5002537;28;20218;-58
2022/04/07 05:38:47;;;;;;;23.27;13.07;;;10.00;99.90;;;;;;4997249;28;20240;-60
2022/04/07 05:41:35;;;;;;;18.10;12.40;;;10.00;99.90;;;;;;4981491;28;20707;-58
2022/04/07 05:44:24;;;;;;;17.63;11.35;;;10.10;99.90;;;;;;5000438;28;20241;-58
2022/04/07 05:47:12;;;;;;;19.67;11.32;;;10.20;99.90;;;;;;4986829;28;20569;-60
2022/04/07 05:50:01;;;;;;;18.80;10.52;;;10.30;99.90;;;;;;4998376;28;20210;-57
2022/04/07 05:52:49;;;;;;;17.75;11.27;;;10.50;99.90;;;;;;4999449;28;20226;-60
2022/04/07 05:55:40;;;;;;;16.35;10.48;;;10.50;99.90;;;;;;4996254;28;20621;-60
2022/04/07 05:58:29;;;;;;;17.33;11.70;;;10.60;99.90;;;;;;4981146;28;20226;-63
2022/04/07 06:01:17;;;;;;;16.98;10.80;;;10.70;99.90;;;;;;4998280;28;20222;-60
2022/04/07 06:04:07;;;;;;;18.90;10.55;;;10.80;99.90;;;;;;4998301;28;20496;-59
2022/04/07 06:06:59;;;;;;;18.15;11.27;;;10.80;99.90;;;;;;4999976;28;20281;-60
2022/04/07 06:09:47;;;;;;;21.80;11.52;;;10.80;99.90;;;;;;4986063;28;20489;-58
2022/04/07 06:12:40;;;;;;;21.00;10.77;;;10.90;99.90;;;;;;4999094;28;20743;-58
2022/04/07 06:15:29;;;;;;;17.77;11.02;;;11.00;99.90;;;;;;4997070;28;20245;-59
2022/04/07 06:18:18;;;;;;;20.10;10.57;;;11.00;99.90;;;;;;4999882;28;20237;-58
2022/04/07 06:21:07;;;;;;;15.02;9.18;;;11.10;99.90;;;;;;4998270;28;20250;-59
2022/04/07 06:23:55;;;;;;;18.73;10.68;;;11.20;99.90;;;;;;5002381;28;20215;-59
2022/04/07 06:26:44;;;;;;;16.50;9.80;;;11.30;99.90;;;;;;4998307;28;20509;-60
2022/04/07 06:29:34;;;;;;;18.40;10.05;;;11.30;99.90;;;;;;4992679;28;20317;-60
2022/04/07 06:32:23;;;;;;;17.02;10.30;;;11.40;99.90;;;;;;4996774;28;20472;-59
2022/04/07 06:35:13;;;;;;;18.05;10.40;;;11.50;99.90;;;;;;4996332;28;20317;-58
2022/04/07 06:38:01;;;;;;;15.80;9.55;;;11.50;99.90;;;;;;4998832;28;20589;-61
2022/04/07 06:40:50;;;;;;;11.98;8.38;;;11.60;99.90;;;;;;5000358;28;20218;-59
2022/04/07 06:43:39;;;;;;;18.52;9.25;;;11.60;99.90;;;;;;4987786;28;20219;-59
2022/04/07 06:46:29;;;;;;;16.65;9.40;;;11.70;99.90;;;;;;4999546;28;20226;-58
2022/04/07 06:49:18;;;;;;;14.50;8.80;;;11.70;99.90;;;;;;4985989;28;20229;-59
2022/04/07 06:52:07;;;;;;;15.52;9.32;;;11.90;99.90;;;;;;5000703;28;20226;-57
2022/04/07 06:54:56;;;;;;;14.52;9.13;;;11.90;99.90;;;;;;4985352;28;20244;-59
2022/04/07 06:57:51;;;;;;;12.15;8.55;;;12.00;99.90;;;;;;5000484;28;20814;-59
2022/04/07 07:00:44;;;;;;;15.82;8.82;;;12.20;99.90;;;;;;5001392;28;20747;-59
2022/04/07 07:03:35;;;;;;;13.55;8.95;;;12.40;99.90;;;;;;5002625;28;20218;-60
2022/04/07 07:06:23;;;;;;;14.82;8.75;;;12.70;99.90;;;;;;4999661;28;20357;-61
2022/04/07 07:16:03;;;;;;;15.88;8.88;;;14.00;99.90;;;;;;4994069;28;20947;-59
2022/04/07 07:18:52;;;;;;;16.92;8.60;;;15.10;99.90;;;;;;5014619;28;20266;-59
2022/04/07 07:21:40;;;;;;;10.70;6.40;;;15.60;99.90;;;;;;5011105;28;20241;-60
2022/04/07 07:24:29;;;;;;;15.40;7.90;;;15.10;99.90;;;;;;5020862;28;20229;-59
2022/04/07 07:27:18;;;;;;;11.73;7.47;;;15.40;99.90;;;;;;5025524;28;20233;-57
2022/04/07 07:30:09;;;;;;;10.63;6.55;;;16.60;99.90;;;;;;5017287;28;20298;-60
2022/04/07 07:32:59;;;;;;;12.10;6.97;;;15.80;99.90;;;;;;5016163;28;20343;-59
2022/04/07 07:35:48;;;;;;;12.18;6.95;;;15.60;99.90;;;;;;5027987;28;20902;-54
2022/04/07 07:38:36;;;;;;;10.00;5.88;;;15.60;99.90;;;;;;5026275;28;20222;-60
2022/04/07 07:41:25;;;;;;;10.48;6.22;;;15.30;99.90;;;;;;5023484;28;20230;-60
2022/04/07 07:44:14;;;;;;;13.20;6.93;;;15.70;99.90;;;;;;5020966;28;20209;-60
2022/04/07 07:47:02;;;;;;;10.18;6.15;;;15.60;99.90;;;;;;5016357;28;20214;-60
2022/04/07 07:49:53;;;;;;;13.90;6.20;;;15.50;99.90;;;;;;5015703;28;20214;-61
2022/04/07 07:52:41;;;;;;;10.50;5.60;;;15.40;99.90;;;;;;5008276;28;20226;-61
2022/04/07 07:55:35;;;;;;;12.48;5.75;;;15.50;99.90;;;;;;5011572;28;20240;-62
2022/04/07 07:58:25;;;;;;;10.82;4.78;;;15.60;99.90;;;;;;5014700;28;20260;-60
2022/04/07 08:01:14;;;;;;;7.75;4.32;;;15.90;99.90;;;;;;5014850;28;20704;-62
2022/04/07 08:04:03;;;;;;;5.50;4.32;;;15.70;99.90;;;;;;5011219;28;20249;-61
2022/04/07 08:06:53;;;;;;;6.82;4.40;;;15.80;99.90;;;;;;5019125;28;20235;-61
2022/04/07 08:09:42;;;;;;;9.20;4.68;;;16.60;99.90;;;;;;5017751;28;20690;-60
2022/04/07 08:12:30;;;;;;;9.45;5.00;;;17.80;99.90;;;;;;5012399;28;20226;-62
2022/04/07 08:15:19;;;;;;;5.57;4.22;;;17.80;99.90;;;;;;5015148;28;20529;-59
2022/04/07 08:18:08;;;;;;;6.03;4.38;;;18.80;99.90;;;;;;5014911;28;20217;-61
2022/04/07 08:20:57;;;;;;;7.43;3.85;;;18.40;94.70;;;;;;5019689;28;20305;-61
2022/04/07 08:23:47;;;;;;;10.50;4.90;;;17.60;94.70;;;;;;5008484;28;20234;-62
2022/04/07 08:26:35;;;;;;;6.57;4.25;;;19.10;94.10;;;;;;5003656;28;20226;-62
2022/04/07 08:29:24;;;;;;;12.90;4.57;;;20.30;92.30;;;;;;5004751;28;20252;-62
2022/04/07 08:32:12;;;;;;;7.63;4.43;;;20.60;84.20;;;;;;4987068;28;20222;-61
2022/04/07 08:35:01;;;;;;;8.00;4.95;;;21.70;78.70;;;;;;5002737;28;20952;-59
2022/04/07 08:37:50;;;;;;;6.75;4.13;;;22.90;73.60;;;;;;5006106;28;22314;-63
2022/04/07 08:40:41;;;;;;;7.57;4.32;;;23.10;68.50;;;;;;5003380;28;20237;-61
2022/04/07 08:43:30;;;;;;;7.70;4.38;;;21.80;70.90;;;;;;5002046;28;20222;-61
2022/04/07 08:46:18;;;;;;;7.50;4.47;;;21.50;70.50;;;;;;4997661;28;20584;-61
2022/04/07 08:49:11;;;;;;;7.25;4.25;;;21.20;71.50;;;;;;4998795;28;20249;-62
2022/04/07 08:52:00;;;;;;;6.82;4.57;;;21.30;70.60;;;;;;5005274;28;20225;-60
2022/04/07 08:54:49;;;;;;;10.90;4.70;;;21.60;70.90;;;;;;5007001;28;20215;-61
2022/04/07 08:57:41;;;;;;;6.35;4.45;;;22.00;69.90;;;;;;4995615;28;20222;-62
2022/04/07 09:00:30;;;;;;;5.85;4.10;;;20.40;73.60;;;;;;4996986;28;20222;-62
2022/04/07 09:03:19;;;;;;;7.00;4.55;;;21.60;70.10;;;;;;4997110;28;20237;-63
2022/04/07 09:06:07;;;;;;;7.60;4.95;;;22.00;70.30;;;;;;5004140;28;20226;-60
2022/04/07 09:08:56;;;;;;;6.15;4.60;;;23.80;66.60;;;;;;5000241;28;20229;-60
2022/04/07 09:11:45;;;;;;;9.80;5.10;;;24.80;63.90;;;;;;4993327;28;20230;-61
2022/04/07 09:14:37;;;;;;;8.52;4.78;;;25.10;61.70;;;;;;4996652;28;20234;-60
2022/04/07 09:17:26;;;;;;;8.27;5.40;;;25.60;60.00;;;;;;5004143;28;20230;-61
2022/04/07 09:20:15;;;;;;;6.28;5.22;;;25.20;59.70;;;;;;4999974;28;20226;-60
2022/04/07 09:23:05;;;;;;;9.27;5.50;;;22.40;63.40;;;;;;4992258;28;20721;-60
2022/04/07 09:25:54;;;;;;;7.70;5.22;;;20.90;69.60;;;;;;4993263;28;20230;-60
2022/04/07 09:28:43;;;;;;;8.80;5.50;;;19.70;71.20;;;;;;5000158;28;20233;-59
2022/04/07 09:31:38;;;;;;;9.00;5.65;;;19.10;74.10;;;;;;5000695;28;20321;-60
2022/04/07 09:34:31;;;;;;;8.52;4.68;;;18.70;75.90;;;;;;5004443;28;20516;-59
2022/04/07 09:37:29;;;;;;;6.40;4.43;;;17.90;77.40;;;;;;4994949;28;20229;-59
2022/04/07 09:40:19;;;;;;;6.57;4.40;;;17.90;78.80;;;;;;4999784;28;20230;-60
2022/04/07 09:43:07;;;;;;;5.55;4.50;;;17.40;79.20;;;;;;5001640;28;20597;-59
2022/04/07 09:45:56;;;;;;;8.32;4.28;;;17.30;80.00;;;;;;5001352;28;20237;-60
2022/04/07 09:49:05;;;;;;;7.78;4.05;;;17.40;79.80;;;;;;5002469;28;20240;-59
2022/04/07 09:51:54;;;;;;;5.57;4.00;;;16.90;79.90;;;;;;5000482;28;20431;-60
2022/04/07 09:54:49;;;;;;;7.32;3.35;;;16.80;81.20;;;;;;4994371;28;20716;-58
2022/04/07 09:57:39;;;;;;;6.40;4.60;;;16.70;81.70;;;;;;5002071;28;20217;-59
2022/04/07 10:00:28;;;;;;;8.60;4.40;;;16.80;82.40;;;;;;5002108;28;20899;-58
2022/04/07 10:03:20;;;;;;;6.85;4.43;;;16.80;82.50;;;;;;4997203;28;20245;-59
2022/04/07 10:06:14;;;;;;;8.63;4.45;;;16.80;82.70;;;;;;5001324;28;20226;-58
2022/04/07 10:09:05;;;;;;;7.93;4.15;;;16.80;82.70;;;;;;5002491;28;20713;-59
2022/04/07 10:11:54;;;;;;;9.05;4.60;;;16.80;83.60;;;;;;5010839;28;20226;-58
2022/04/07 10:14:43;;;;;;;7.07;4.60;;;17.00;83.80;;;;;;5007304;28;20233;-59
2022/04/07 10:17:32;;;;;;;7.72;4.35;;;17.00;83.40;;;;;;5029552;28;20877;-60
2022/04/07 10:20:22;;;;;;;6.55;4.10;;;17.00;84.60;;;;;;5023755;28;20222;-61
2022/04/07 10:23:28;;;;;;;6.55;4.68;;;16.90;84.30;;;;;;5019442;28;20244;-59
2022/04/07 10:26:19;;;;;;;8.02;4.03;;;16.80;84.60;;;;;;5020358;28;20230;-60
2022/04/07 10:29:07;;;;;;;8.10;4.07;;;16.80;84.20;;;;;;5020994;28;20283;-60
2022/04/07 10:32:18;;;;;;;9.20;4.70;;;16.60;84.80;;;;;;5019042;28;20229;-58
2022/04/07 10:35:08;;;;;;;7.65;4.75;;;16.30;86.00;;;;;;5024489;28;20233;-60
2022/04/07 10:37:57;;;;;;;7.28;4.70;;;16.50;86.90;;;;;;5009664;28;20222;-60
2022/04/07 10:40:51;;;;;;;7.13;4.15;;;16.50;86.50;;;;;;5023614;28;20355;-60
2022/04/07 10:43:40;;;;;;;6.25;4.40;;;16.50;86.20;;;;;;5013600;28;20224;-60
2022/04/07 10:46:29;;;;;;;6.85;4.45;;;16.40;86.20;;;;;;5026111;28;20225;-59
2022/04/07 10:49:24;;;;;;;6.20;4.15;;;16.50;86.70;;;;;;5026863;28;20278;-56
2022/04/07 10:52:26;;;;;;;5.70;3.53;;;16.60;87.30;;;;;;5008593;28;20238;-58
2022/04/07 10:55:18;;;;;;;6.45;3.85;;;16.60;85.80;;;;;;5013523;28;20217;-60
2022/04/07 10:58:14;;;;;;;6.95;4.15;;;16.50;86.20;;;;;;5013077;28;20310;-62
2022/04/07 11:01:03;;;;;;;8.32;4.10;;;16.40;86.50;;;;;;5020631;28;20720;-59
2022/04/07 11:04:44;;;;;;;5.85;3.70;;;16.50;87.20;;;;;;5022178;28;20221;-60
2022/04/07 11:07:51;;;;;;;5.57;3.63;;;16.50;86.70;;;;;;4954393;28;21038;-60
2022/04/07 11:10:45;;;;;;;7.32;3.40;;;16.50;87.00;;;;;;4957484;28;20219;-59
2022/04/07 11:13:49;;;;;;;5.85;3.28;;;16.60;86.50;;;;;;5008472;28;20677;-60
2022/04/07 11:16:40;;;;;;;5.53;3.80;;;16.20;86.80;;;;;;5021128;28;20229;-59
2022/04/07 11:19:41;;;;;;;6.60;3.92;;;16.20;87.50;;;;;;5021510;28;20222;-59
2022/04/07 11:22:49;;;;;;;6.03;4.28;;;16.40;88.30;;;;;;5005966;28;20226;-59
2022/04/07 11:25:39;;;;;;;5.85;3.80;;;16.40;89.20;;;;;;5010003;28;20217;-59
2022/04/07 11:28:31;;;;;;;3.53;2.90;;;16.50;88.90;;;;;;5021624;28;20234;-58
2022/04/07 11:31:46;;;;;;;7.75;3.80;;;16.40;87.60;;;;;;5017171;28;20226;-58
2022/04/07 11:34:52;;;;;;;3.55;3.22;;;16.50;87.70;;;;;;5020014;28;20698;-58
2022/04/07 11:37:41;;;;;;;8.43;3.70;;;16.50;88.40;;;;;;5015311;28;20360;-62
2022/04/07 11:40:30;;;;;;;5.57;3.40;;;16.60;88.10;;;;;;5021861;28;20234;-60
2022/04/07 11:43:22;;;;;;;6.60;3.40;;;16.70;87.50;;;;;;5000534;28;20217;-60
2022/04/07 11:46:11;;;;;;;5.32;3.55;;;16.70;87.40;;;;;;5019863;28;21015;-59
2022/04/07 11:49:23;;;;;;;6.20;3.35;;;16.70;86.90;;;;;;5018305;28;20576;-59
2022/04/07 11:52:12;;;;;;;6.78;3.00;;;16.80;86.30;;;;;;4996229;28;20229;-61
2022/04/07 11:55:02;;;;;;;3.35;2.70;;;16.80;85.40;;;;;;5017979;28;20342;-59
2022/04/07 11:57:57;;;;;;;5.35;3.33;;;16.90;85.30;;;;;;5014235;28;20229;-60
2022/04/07 12:00:46;;;;;;;4.65;2.75;;;16.90;84.70;;;;;;5018573;28;20228;-63
2022/04/07 12:03:35;;;;;;;7.78;3.13;;;17.00;84.20;;;;;;5020494;28;20280;-61
2022/04/07 12:06:26;;;;;;;5.45;3.10;;;17.10;83.40;;;;;;5021232;28;20225;-62
2022/04/07 12:09:16;;;;;;;3.22;2.42;;;17.20;83.60;;;;;;5002104;28;20248;-61
2022/04/07 12:12:06;;;;;;;3.60;3.05;;;17.30;82.50;;;;;;5019760;28;20900;-60
2022/04/07 12:14:55;;;;;;;2.45;1.83;;;17.20;82.50;;;;;;5003419;28;20311;-58
2022/04/07 12:18:01;;;;;;;5.03;2.78;;;17.10;82.00;;;;;;5002460;28;20233;-60
2022/04/07 12:20:58;;;;;;;5.00;2.50;;;17.10;82.30;;;;;;5028699;28;20346;-61
2022/04/07 12:23:49;;;;;;;5.60;2.60;;;17.20;82.80;;;;;;5018517;28;20237;-61
2022/04/07 12:26:41;;;;;;;4.43;2.55;;;17.40;82.60;;;;;;5010308;28;20218;-60
2022/04/07 12:29:31;;;;;;;4.15;2.30;;;17.30;82.20;;;;;;5018058;28;20225;-60
2022/04/07 12:32:21;;;;;;;4.07;2.15;;;17.20;82.30;;;;;;5025145;28;20219;-59
2022/04/07 12:35:10;;;;;;;2.45;1.90;;;17.30;82.40;;;;;;5018878;28;20332;-60
2022/04/07 12:38:11;;;;;;;3.42;2.17;;;17.10;82.50;;;;;;5019372;28;20221;-57
2022/04/07 12:41:14;;;;;;;4.07;1.98;;;17.00;82.50;;;;;;5017127;28;20716;-59
2022/04/07 12:44:03;;;;;;;3.40;1.70;;;17.10;82.70;;;;;;5007643;28;20213;-59
2022/04/07 12:46:53;;;;;;;4.38;2.10;;;17.30;83.10;;;;;;5017556;28;20263;-60
2022/04/07 12:49:55;;;;;;;2.58;1.75;;;17.40;82.50;;;;;;5023806;28;20240;-60
2022/04/07 12:52:43;;;;;;;3.78;1.80;;;17.40;82.00;;;;;;5002337;28;20814;-59
2022/04/07 12:55:35;;;;;;;2.58;1.50;;;17.30;81.00;;;;;;5023535;28;20222;-59
2022/04/07 12:58:31;;;;;;;2.00;1.50;;;17.10;81.30;;;;;;4999155;28;20229;-58
2022/04/07 13:01:22;;;;;;;1.33;1.23;;;17.00;81.40;;;;;;4999382;28;20854;-59
2022/04/07 13:04:11;;;;;;;2.53;1.30;;;17.10;81.30;;;;;;5019375;28;20225;-60
2022/04/07 13:07:00;;;;;;;2.00;1.30;;;17.20;80.90;;;;;;4999417;28;21165;-59
2022/04/07 13:09:50;;;;;;;2.08;1.45;;;17.10;81.30;;;;;;5022056;28;20229;-61
2022/04/07 13:12:39;;;;;;;4.35;1.55;;;17.10;81.70;;;;;;5015585;28;20240;-60
2022/04/07 13:15:29;;;;;;;3.28;1.30;;;17.10;81.90;;;;;;5001950;28;20218;-57
2022/04/07 13:18:18;;;;;;;2.42;1.45;;;17.10;82.00;;;;;;5020560;28;20229;-59
2022/04/07 13:21:07;;;;;;;3.08;1.33;;;17.00;81.80;;;;;;5017908;28;20229;-60
2022/04/07 13:23:58;;;;;;;2.95;1.52;;;16.90;82.50;;;;;;5020149;28;20228;-59
2022/04/07 13:26:49;;;;;;;2.30;1.50;;;17.00;82.70;;;;;;5015855;28;20217;-59
2022/04/07 13:29:38;;;;;;;3.17;1.27;;;17.00;82.60;;;;;;5018729;28;20687;-58
2022/04/07 13:32:28;;;;;;;1.42;1.25;;;17.10;83.20;;;;;;5003151;28;20241;-59
2022/04/07 13:35:17;;;;;;;3.03;1.15;;;17.10;82.30;;;;;;4999983;28;20229;-60
2022/04/07 13:38:06;;;;;;;1.88;1.20;;;17.20;82.50;;;;;;5022421;28;20237;-60
2022/04/07 13:40:55;;;;;;;1.40;1.20;;;17.10;82.50;;;;;;5018367;28;20230;-60
2022/04/07 13:43:44;;;;;;;3.50;1.30;;;17.20;82.80;;;;;;5009579;28;20226;-61
2022/04/07 13:46:32;;;;;;;1.45;1.17;;;17.20;83.00;;;;;;5023396;28;20236;-61
2022/04/07 13:49:25;;;;;;;3.17;1.50;;;17.20;83.50;;;;;;5015939;28;20217;-63
2022/04/07 13:52:14;;;;;;;2.05;1.42;;;17.20;83.60;;;;;;5021210;28;20229;-59
2022/04/07 13:55:03;;;;;;;1.90;1.30;;;17.20;83.20;;;;;;5011529;28;20224;-60
2022/04/07 13:57:51;;;;;;;2.40;1.35;;;17.30;83.60;;;;;;5019205;28;20225;-60
2022/04/07 14:00:41;;;;;;;3.83;1.80;;;17.10;83.40;;;;;;5025858;28;20635;-60
2022/04/07 14:03:30;;;;;;;1.50;1.30;;;17.20;83.80;;;;;;5024589;28;20245;-61
2022/04/07 14:06:21;;;;;;;1.92;1.30;;;17.20;82.50;;;;;;5008314;28;20711;-59
2022/04/07 14:09:12;;;;;;;1.52;1.20;;;17.20;82.30;;;;;;5007127;28;20612;-61
2022/04/07 14:12:00;;;;;;;5.13;1.35;;;17.10;82.90;;;;;;4998363;28;20218;-59
2022/04/07 14:14:49;;;;;;;3.50;1.48;;;17.30;82.10;;;;;;5011967;28;20252;-60
2022/04/07 14:17:39;;;;;;;2.53;1.20;;;17.30;81.90;;;;;;5018677;28;20229;-58
2022/04/07 14:20:27;;;;;;;2.25;1.10;;;17.30;81.00;;;;;;5025625;28;20376;-58
2022/04/07 14:23:17;;;;;;;2.65;1.20;;;17.20;81.90;;;;;;5019496;28;20877;-58
2022/04/07 14:26:06;;;;;;;2.55;1.40;;;17.20;81.10;;;;;;5021113;28;20312;-63
2022/04/07 14:28:55;;;;;;;3.47;1.13;;;17.10;81.10;;;;;;5025040;28;20259;-57
2022/04/07 14:31:43;;;;;;;1.42;1.10;;;17.00;81.60;;;;;;5017332;28;20222;-58
2022/04/07 14:34:33;;;;;;;4.22;1.20;;;17.00;81.90;;;;;;5017662;28;20610;-58
2022/04/07 14:37:21;;;;;;;1.40;1.08;;;17.00;82.40;;;;;;5015421;28;20231;-58
2022/04/07 14:40:12;;;;;;;3.10;1.33;;;17.10;81.70;;;;;;5023062;28;20711;-58
2022/04/07 14:43:01;;;;;;;1.13;0.85;;;17.10;81.40;;;;;;5003337;28;20403;-57
2022/04/07 14:45:51;;;;;;;3.40;0.98;;;17.10;79.60;;;;;;5018381;28;20739;-60
2022/04/07 14:48:44;;;;;;;3.15;1.27;;;17.10;79.40;;;;;;5025961;28;20297;-58